Time;durP1;ratioP1;P1;durP2;ratioP2;P2;SDS_P1;SDS_P2;PMS_P1;PMS_P2;Temp;Humidity;BMP_temperature;BMP_pressure;BME280_temperature;BME280_humidity;BME280_pressure;Samples;Min_cycle;Max_cycle;Signal;HPM_P1;HPM_P2
2022/06/14 17:41:11;;;;;;;2.95;1.15;;;31.20;48.60;;;;;;5074679;27;21013;-51
2022/06/14 17:43:39;;;;;;;4.00;1.25;;;30.80;50.40;;;;;;5069888;28;20047;-58
2022/06/14 17:46:06;;;;;;;3.60;1.38;;;30.80;51.10;;;;;;5070009;28;20541;-57
2022/06/14 17:48:33;;;;;;;5.20;1.30;;;30.70;50.80;;;;;;5054961;28;20561;-56
2022/06/14 17:51:03;;;;;;;4.68;1.20;;;30.70;50.30;;;;;;5059596;28;20373;-59
2022/06/14 17:53:30;;;;;;;3.28;1.23;;;30.70;49.20;;;;;;5067787;28;20128;-58
2022/06/14 17:55:57;;;;;;;3.38;1.20;;;30.80;49.00;;;;;;5069687;28;20119;-54
2022/06/14 17:58:24;;;;;;;4.95;1.40;;;30.90;49.30;;;;;;5057164;28;20044;-55
2022/06/14 18:00:51;;;;;;;2.40;1.15;;;30.90;48.90;;;;;;5058536;28;20052;-54
2022/06/14 18:03:18;;;;;;;3.20;1.50;;;31.00;49.40;;;;;;5057544;28;20045;-53
2022/06/14 18:05:45;;;;;;;3.33;1.33;;;31.20;48.30;;;;;;5067894;28;20059;-52
2022/06/14 18:08:12;;;;;;;3.47;1.20;;;31.20;47.50;;;;;;5067280;28;20056;-52
2022/06/14 18:10:39;;;;;;;4.10;1.30;;;31.30;47.40;;;;;;5069112;28;20040;-55
2022/06/14 18:13:06;;;;;;;2.65;1.10;;;31.30;47.60;;;;;;5050984;28;20077;-52
2022/06/14 18:15:33;;;;;;;4.28;1.13;;;31.30;47.30;;;;;;5063717;28;20049;-53
2022/06/14 18:18:01;;;;;;;5.43;1.48;;;31.20;47.50;;;;;;5063535;28;20065;-52
2022/06/14 18:23:13;;;;;;;4.45;1.55;;;31.10;48.00;;;;;;5056956;28;20037;-49
2022/06/14 18:25:40;;;;;;;4.78;1.50;;;31.10;47.50;;;;;;5067563;28;20372;-57
2022/06/14 18:28:07;;;;;;;7.43;1.70;;;31.20;48.30;;;;;;5069105;28;20495;-52
2022/06/14 18:30:33;;;;;;;3.55;1.10;;;31.30;46.90;;;;;;5069135;28;20127;-53
2022/06/14 18:33:00;;;;;;;4.75;1.60;;;31.20;47.20;;;;;;5068901;28;20082;-55
2022/06/14 18:35:27;;;;;;;4.15;1.40;;;31.10;48.50;;;;;;5068955;28;20041;-54
2022/06/14 18:37:54;;;;;;;4.95;4.43;;;31.00;46.90;;;;;;5068921;28;20037;-56
2022/06/14 18:40:22;;;;;;;4.55;2.60;;;30.90;47.00;;;;;;5067534;28;20108;-53
2022/06/14 18:42:49;;;;;;;6.72;1.70;;;30.60;47.30;;;;;;5067495;28;20462;-54
2022/06/14 18:45:17;;;;;;;3.60;1.70;;;30.10;47.40;;;;;;5067935;28;20090;-56
2022/06/14 18:47:44;;;;;;;3.95;1.80;;;29.60;47.90;;;;;;5068839;28;20071;-55
2022/06/14 18:50:10;;;;;;;4.53;1.40;;;28.90;47.90;;;;;;5054891;28;20041;-56
2022/06/14 18:52:45;;;;;;;3.90;1.60;;;28.50;48.70;;;;;;5035976;28;20397;-51
2022/06/14 18:55:13;;;;;;;4.78;1.63;;;28.00;49.20;;;;;;5048597;28;20048;-53
2022/06/14 18:57:40;;;;;;;6.50;2.13;;;27.60;50.30;;;;;;5055367;28;20056;-56
2022/06/14 19:00:10;;;;;;;6.30;2.17;;;27.20;50.40;;;;;;5054001;28;20049;-51
2022/06/14 19:02:37;;;;;;;4.38;2.20;;;26.80;50.90;;;;;;5055324;28;20056;-54
2022/06/14 19:05:04;;;;;;;6.22;1.58;;;26.60;51.30;;;;;;5055322;28;20044;-54
2022/06/14 19:07:31;;;;;;;4.07;1.70;;;26.30;52.00;;;;;;5055048;28;20041;-50
2022/06/14 19:09:57;;;;;;;6.10;1.83;;;26.10;52.80;;;;;;5053907;28;20037;-57
2022/06/14 19:12:24;;;;;;;6.68;1.60;;;25.90;52.80;;;;;;5054988;28;20055;-56
2022/06/14 19:14:51;;;;;;;7.10;1.88;;;25.70;53.50;;;;;;5054711;28;20396;-53
2022/06/14 19:17:18;;;;;;;5.65;1.52;;;25.50;53.80;;;;;;5055087;28;20051;-52
2022/06/14 19:19:44;;;;;;;4.47;1.80;;;25.30;54.10;;;;;;5055032;28;20469;-54
2022/06/14 19:22:13;;;;;;;5.60;1.65;;;25.10;54.10;;;;;;5054777;28;20111;-53
2022/06/14 19:24:39;;;;;;;4.07;1.63;;;24.80;54.50;;;;;;5054090;28;20037;-56
2022/06/14 19:27:06;;;;;;;3.60;1.70;;;24.60;55.40;;;;;;5054666;28;20037;-56
2022/06/14 19:29:33;;;;;;;4.65;1.67;;;24.50;55.50;;;;;;5054583;28;20041;-54
2022/06/14 19:32:00;;;;;;;4.32;1.70;;;24.40;55.80;;;;;;5053851;28;20037;-52
2022/06/14 19:34:27;;;;;;;2.90;1.33;;;24.10;55.80;;;;;;5054651;28;20052;-50
2022/06/14 19:36:57;;;;;;;5.70;1.40;;;24.00;56.20;;;;;;5053627;28;20072;-52
2022/06/14 19:39:23;;;;;;;5.43;1.60;;;23.90;55.70;;;;;;5054257;28;20092;-54
2022/06/14 19:41:50;;;;;;;3.70;1.70;;;23.70;55.90;;;;;;5053272;28;20048;-56
2022/06/14 19:44:17;;;;;;;4.40;1.70;;;23.60;56.00;;;;;;5035318;28;20037;-53
2022/06/14 19:46:44;;;;;;;4.10;1.60;;;23.50;55.80;;;;;;5035181;28;20504;-52
2022/06/14 19:51:56;;;;;;;5.20;2.55;;;23.30;56.40;;;;;;5054319;28;20484;-55
2022/06/14 19:54:23;;;;;;;5.78;1.90;;;23.20;56.10;;;;;;5053420;28;20095;-54
2022/06/14 19:56:50;;;;;;;4.88;1.67;;;23.00;56.90;;;;;;5045984;28;20045;-53
2022/06/14 19:59:17;;;;;;;3.90;1.65;;;22.90;56.70;;;;;;5034030;28;20452;-52
2022/06/14 20:01:45;;;;;;;6.32;1.63;;;22.80;57.10;;;;;;5035195;28;20068;-55
2022/06/14 20:04:12;;;;;;;3.92;1.55;;;22.80;57.20;;;;;;5050836;28;20472;-55
2022/06/14 20:06:39;;;;;;;4.10;1.70;;;22.60;57.40;;;;;;5053970;28;20099;-52
2022/06/14 20:09:06;;;;;;;5.65;1.70;;;22.60;57.90;;;;;;5053950;28;20041;-57
2022/06/14 20:11:33;;;;;;;7.50;1.85;;;22.40;58.30;;;;;;5053863;28;20499;-56
2022/06/14 20:13:59;;;;;;;3.15;1.60;;;22.40;58.80;;;;;;5053933;28;20098;-59
2022/06/14 20:16:29;;;;;;;4.78;1.95;;;22.30;58.20;;;;;;5052971;28;20060;-55
2022/06/14 20:18:56;;;;;;;3.60;1.65;;;22.20;58.30;;;;;;5053957;28;20051;-54
2022/06/14 20:21:23;;;;;;;2.38;1.48;;;22.10;58.60;;;;;;5053890;28;20037;-51
2022/06/14 20:23:51;;;;;;;3.67;1.67;;;22.00;58.90;;;;;;5053594;28;20041;-54
2022/06/14 20:26:18;;;;;;;4.32;1.67;;;22.00;59.00;;;;;;5052698;28;20525;-54
2022/06/14 20:28:46;;;;;;;3.67;1.70;;;21.90;59.40;;;;;;5053965;28;20049;-53
2022/06/14 20:31:14;;;;;;;5.82;1.88;;;21.70;59.50;;;;;;5053677;28;20045;-55
2022/06/14 20:33:41;;;;;;;5.88;2.00;;;21.60;59.50;;;;;;5053759;28;20040;-53
2022/06/14 20:36:08;;;;;;;4.28;2.42;;;21.60;59.90;;;;;;5052369;28;20060;-53
2022/06/14 20:38:34;;;;;;;4.55;1.98;;;21.40;60.40;;;;;;5053492;28;20045;-57
2022/06/14 20:41:01;;;;;;;4.45;1.90;;;21.40;60.90;;;;;;5052556;28;20053;-56
2022/06/14 20:43:28;;;;;;;5.25;1.67;;;21.30;61.50;;;;;;5039567;28;20042;-53
2022/06/14 20:45:55;;;;;;;6.28;1.77;;;21.10;61.00;;;;;;5034147;28;20041;-53
